createdAt,value
2017-09-20T00:00:56.450Z,40.17
2017-09-20T00:06:12.322Z,42.10
2017-09-20T00:08:44.172Z,41.53
2017-09-20T00:11:15.174Z,41.03
2017-09-20T00:13:52.059Z,39.27
2017-09-20T00:16:22.795Z,43.33
2017-09-20T00:18:53.793Z,40.70
2017-09-20T00:21:25.205Z,43.73
2017-09-20T00:23:57.189Z,48.53
2017-09-20T00:26:27.673Z,44.73
2017-09-20T00:28:59.015Z,46.10
2017-09-20T00:31:29.954Z,44.33
2017-09-20T00:34:01.107Z,45.13
2017-09-20T00:36:31.744Z,46.73
2017-09-20T00:39:04.088Z,43.40
2017-09-20T00:41:35.041Z,42.93
2017-09-20T00:44:06.018Z,43.33
2017-09-20T00:46:36.578Z,41.40
2017-09-20T00:49:04.282Z,39.03
2017-09-20T00:51:32.010Z,39.57
2017-09-20T00:53:59.663Z,39.83
2017-09-20T00:56:27.361Z,40.10
2017-09-20T00:58:55.039Z,41.63
2017-09-20T01:01:22.754Z,39.50
2017-09-20T01:03:50.513Z,42.07
2017-09-20T01:06:18.220Z,39.40
2017-09-20T01:08:45.947Z,43.60
2017-09-20T01:11:13.654Z,43.20
2017-09-20T01:13:41.347Z,42.63
2017-09-20T01:16:09.056Z,46.13
2017-09-20T01:18:36.837Z,50.67
2017-09-20T01:21:04.550Z,51.33
2017-09-20T01:23:32.218Z,54.47
2017-09-20T01:25:59.934Z,54.97
2017-09-20T01:28:27.703Z,51.90
2017-09-20T01:30:55.426Z,51.57
2017-09-20T01:33:23.191Z,53.33
2017-09-20T01:35:50.908Z,64.37
2017-09-20T01:38:18.727Z,55.53
2017-09-20T01:40:46.459Z,70.10
2017-09-20T01:43:14.214Z,58.80
2017-09-20T01:45:41.900Z,57.73
2017-09-20T01:48:09.557Z,63.20
2017-09-20T01:50:37.239Z,61.57
2017-09-20T01:53:04.881Z,79.47
2017-09-20T01:55:32.588Z,77.40
2017-09-20T01:58:00.313Z,79.57
2017-09-20T02:00:28.054Z,84.97
2017-09-20T02:02:55.705Z,81.30
2017-09-20T02:05:23.450Z,75.57
2017-09-20T02:07:51.051Z,91.57
2017-09-20T02:10:18.819Z,88.13
2017-09-20T02:12:46.551Z,94.03
2017-09-20T02:15:14.302Z,88.17
2017-09-20T02:17:42.005Z,85.37
2017-09-20T02:20:09.745Z,90.47
2017-09-20T02:22:37.445Z,84.20
2017-09-20T02:25:05.225Z,89.40
2017-09-20T02:27:32.841Z,91.43
2017-09-20T02:30:00.597Z,91.20
2017-09-20T02:32:28.330Z,90.03
2017-09-20T02:34:55.987Z,89.27
2017-09-20T02:37:23.709Z,86.83
2017-09-20T02:39:51.495Z,91.27
2017-09-20T02:42:19.191Z,88.93
2017-09-20T02:44:46.985Z,97.10
2017-09-20T02:47:14.625Z,96.57
2017-09-20T02:49:42.328Z,111.73
2017-09-20T02:52:10.077Z,111.43
2017-09-20T02:54:37.832Z,81.97
2017-09-20T02:57:05.530Z,93.13
2017-09-20T02:59:33.282Z,126.53
2017-09-20T03:02:01.021Z,88.63
2017-09-20T03:04:28.825Z,87.63
2017-09-20T03:06:56.564Z,105.17
2017-09-20T03:09:24.322Z,113.67
2017-09-20T03:11:51.974Z,107.80
2017-09-20T03:14:19.747Z,93.50
2017-09-20T03:16:47.454Z,96.57
2017-09-20T03:19:15.150Z,98.93
2017-09-20T03:21:42.847Z,86.33
2017-09-20T03:24:10.621Z,103.13
2017-09-20T03:26:38.225Z,94.40
2017-09-20T03:29:05.998Z,99.70
2017-09-20T03:31:33.719Z,106.13
2017-09-20T03:34:01.365Z,98.50
2017-09-20T03:36:28.982Z,86.40
2017-09-20T03:38:56.728Z,80.40
2017-09-20T03:41:24.496Z,66.90
2017-09-20T03:43:52.207Z,106.50
2017-09-20T03:46:20.088Z,112.67
2017-09-20T03:48:47.801Z,109.67
2017-09-20T03:51:15.554Z,104.27
2017-09-20T03:53:43.277Z,102.87
2017-09-20T03:56:11.035Z,100.83
2017-09-20T03:58:38.753Z,130.77
2017-09-20T04:01:09.548Z,113.37
2017-09-20T04:03:37.271Z,128.07
2017-09-20T04:06:05.064Z,110.27
2017-09-20T04:08:32.677Z,106.73
2017-09-20T04:11:00.436Z,105.17
2017-09-20T04:13:28.054Z,112.57
2017-09-20T04:15:55.825Z,92.67
2017-09-20T04:18:23.528Z,100.30
2017-09-20T04:20:51.310Z,106.90
2017-09-20T04:23:18.923Z,98.73
2017-09-20T04:25:46.694Z,99.30
2017-09-20T04:28:14.307Z,104.70
2017-09-20T04:30:42.082Z,92.17
2017-09-20T04:33:09.718Z,98.93
2017-09-20T04:35:37.465Z,100.13
2017-09-20T04:38:05.230Z,95.13
2017-09-20T04:40:32.991Z,99.50
2017-09-20T04:43:00.645Z,100.87
2017-09-20T04:45:28.409Z,98.67
2017-09-20T04:47:56.014Z,99.70
2017-09-20T04:50:23.672Z,95.17
2017-09-20T04:52:51.268Z,96.70
2017-09-20T04:55:18.905Z,100.30
2017-09-20T04:57:46.493Z,98.77
2017-09-20T05:00:14.202Z,97.73
2017-09-20T05:02:41.825Z,108.23
2017-09-20T05:05:09.489Z,103.53
2017-09-20T05:07:37.117Z,96.93
2017-09-20T05:10:05.346Z,102.30
2017-09-20T05:12:32.951Z,101.93
2017-09-20T05:15:00.654Z,107.07
2017-09-20T05:17:28.250Z,100.50
2017-09-20T05:19:55.933Z,95.97
2017-09-20T05:22:23.536Z,120.33
2017-09-20T05:24:51.161Z,105.47
2017-09-20T05:27:19.100Z,105.43
2017-09-20T05:29:46.725Z,97.53
2017-09-20T05:32:14.414Z,112.00
2017-09-20T05:34:42.039Z,115.40
2017-09-20T05:37:09.708Z,105.97
2017-09-20T05:39:37.307Z,102.00
2017-09-20T05:42:04.959Z,108.07
2017-09-20T05:44:32.590Z,96.30
2017-09-20T05:47:00.239Z,96.20
2017-09-20T05:49:27.833Z,90.77
2017-09-20T05:51:55.486Z,94.10
2017-09-20T05:54:23.113Z,93.30
2017-09-20T05:56:50.768Z,84.13
2017-09-20T05:59:18.400Z,114.03
2017-09-20T06:01:46.089Z,89.87
2017-09-20T06:04:13.717Z,91.70
2017-09-20T06:06:41.383Z,102.43
2017-09-20T06:09:08.996Z,89.53
2017-09-20T06:11:36.656Z,106.80
2017-09-20T06:14:04.277Z,90.43
2017-09-20T06:16:31.917Z,82.23
2017-09-20T06:18:59.533Z,94.70
2017-09-20T06:21:27.232Z,93.10
2017-09-20T06:23:54.869Z,92.00
2017-09-20T06:26:22.548Z,85.20
2017-09-20T06:28:50.196Z,79.33
2017-09-20T06:31:17.837Z,94.27
2017-09-20T06:33:45.458Z,95.63
2017-09-20T06:36:13.124Z,88.63
2017-09-20T06:38:40.749Z,89.37
2017-09-20T06:41:08.396Z,87.03
2017-09-20T06:43:36.043Z,69.20
2017-09-20T06:46:03.724Z,63.40
2017-09-20T06:48:31.341Z,68.13
2017-09-20T06:50:59.057Z,77.17
2017-09-20T06:53:26.709Z,59.60
2017-09-20T06:55:54.481Z,64.30
2017-09-20T06:58:22.207Z,55.00
2017-09-20T07:00:49.898Z,72.53
2017-09-20T07:03:17.672Z,57.80
2017-09-20T07:05:45.398Z,61.33
2017-09-20T07:08:13.185Z,58.97
2017-09-20T07:10:40.849Z,60.60
2017-09-20T07:13:08.972Z,66.53
2017-09-20T07:15:36.686Z,61.73
2017-09-20T07:18:04.386Z,53.50
2017-09-20T07:20:32.030Z,73.67
2017-09-20T07:22:59.739Z,69.20
2017-09-20T07:25:27.462Z,60.40
2017-09-20T07:27:55.242Z,62.53
2017-09-20T07:30:23.001Z,53.33
2017-09-20T07:32:50.787Z,62.83
2017-09-20T07:35:18.537Z,48.00
2017-09-20T07:37:46.353Z,61.57
2017-09-20T07:40:14.081Z,43.83
2017-09-20T07:42:41.845Z,41.90
2017-09-20T07:45:09.587Z,62.53
2017-09-20T07:47:37.283Z,57.87
2017-09-20T07:50:04.932Z,61.37
2017-09-20T07:52:32.611Z,55.40
2017-09-20T07:55:00.281Z,56.40
2017-09-20T07:57:27.982Z,105.20
2017-09-20T07:59:55.614Z,56.80
2017-09-20T08:02:23.397Z,70.63
2017-09-20T08:04:51.130Z,60.80
2017-09-20T08:07:18.924Z,60.43
2017-09-20T08:09:46.688Z,69.33
2017-09-20T08:12:14.462Z,70.17
2017-09-20T08:14:42.199Z,63.97
2017-09-20T08:17:09.933Z,55.40
2017-09-20T08:19:37.660Z,63.03
2017-09-20T08:22:05.464Z,47.93
2017-09-20T08:24:33.236Z,43.93
2017-09-20T08:27:01.006Z,40.43
2017-09-20T08:29:28.720Z,33.00
2017-09-20T08:31:56.495Z,38.47
2017-09-20T08:34:24.235Z,56.77
2017-09-20T08:48:08.580Z,41.57
2017-09-20T08:53:15.100Z,67.57
2017-09-20T09:24:45.340Z,41.00
2017-09-20T09:40:42.735Z,45.87
2017-09-20T09:43:10.870Z,35.23
2017-09-20T09:45:38.499Z,21.73
2017-09-20T09:48:06.171Z,42.67
2017-09-20T09:50:33.802Z,61.57
2017-09-20T09:53:01.482Z,43.13
2017-09-20T09:55:29.194Z,54.57
2017-09-20T09:57:56.945Z,43.50
2017-09-20T10:00:24.652Z,40.13
2017-09-20T10:02:52.422Z,39.73
2017-09-20T10:05:20.136Z,51.30
2017-09-20T10:07:47.909Z,38.63
2017-09-20T10:10:15.656Z,30.97
2017-09-20T10:12:43.357Z,40.67
2017-09-20T10:15:11.100Z,33.10
2017-09-20T10:17:38.806Z,32.43
2017-09-20T10:20:06.556Z,52.63
2017-09-20T10:22:34.198Z,37.57
2017-09-20T10:25:01.960Z,55.90
2017-09-20T10:27:29.692Z,47.13
2017-09-20T10:29:57.909Z,37.87
2017-09-20T10:32:25.622Z,39.60
2017-09-20T10:34:53.379Z,27.47
2017-09-20T10:37:21.081Z,8.60
2017-09-20T10:39:48.901Z,24.80
2017-09-20T10:42:16.607Z,36.80
2017-09-20T10:44:44.417Z,27.50
2017-09-20T10:47:12.164Z,47.50
2017-09-20T10:49:39.952Z,44.23
2017-09-20T10:52:07.660Z,27.37
2017-09-20T10:54:35.441Z,25.43
2017-09-20T10:57:03.154Z,42.40
2017-09-20T10:59:30.819Z,39.00
2017-09-20T11:01:58.561Z,48.97
2017-09-20T11:04:26.343Z,31.00
2017-09-20T11:06:54.029Z,37.30
2017-09-20T11:09:21.808Z,32.77
2017-09-20T11:11:49.573Z,60.97
2017-09-20T11:14:17.250Z,27.23
2017-09-20T11:16:44.976Z,26.50
2017-09-20T11:19:12.748Z,34.77
2017-09-20T11:21:40.461Z,34.20
2017-09-20T11:24:08.242Z,31.27
2017-09-20T11:26:35.981Z,29.10
2017-09-20T11:29:03.728Z,40.83
2017-09-20T11:31:31.443Z,30.90
2017-09-20T11:33:59.210Z,40.87
2017-09-20T11:36:26.835Z,33.30
2017-09-20T11:38:54.675Z,31.93
2017-09-20T11:41:22.379Z,35.20
2017-09-20T11:43:50.150Z,40.40
2017-09-20T11:46:17.867Z,26.20
2017-09-20T11:48:45.661Z,30.00
2017-09-20T11:51:13.461Z,21.80
2017-09-20T11:53:41.238Z,34.83
2017-09-20T11:56:08.964Z,42.70
2017-09-20T11:58:36.694Z,18.70
2017-09-20T12:01:04.474Z,38.97
2017-09-20T12:03:32.179Z,23.33
2017-09-20T12:05:59.978Z,15.93
2017-09-20T12:08:27.716Z,28.17
2017-09-20T12:10:55.474Z,28.43
2017-09-20T12:13:23.221Z,20.60
2017-09-20T12:15:51.015Z,50.77
2017-09-20T12:18:18.740Z,21.17
2017-09-20T12:20:46.502Z,28.63
2017-09-20T12:23:14.216Z,33.83
2017-09-20T12:25:41.995Z,19.97
2017-09-20T12:28:09.699Z,27.27
2017-09-20T12:30:37.491Z,20.77
2017-09-20T12:33:05.213Z,26.53
2017-09-20T12:35:32.970Z,32.30
2017-09-20T12:38:00.709Z,24.70
2017-09-20T12:40:28.417Z,41.53
2017-09-20T12:42:56.086Z,24.20
2017-09-20T12:45:23.798Z,35.10
2017-09-20T12:47:51.460Z,25.77
2017-09-20T12:50:19.180Z,33.90
2017-09-20T12:52:46.863Z,21.30
2017-09-20T12:55:14.595Z,21.50
2017-09-20T12:57:42.259Z,41.73
2017-09-20T13:00:09.952Z,34.70
2017-09-20T13:02:37.663Z,19.33
2017-09-20T13:05:05.412Z,25.30
2017-09-20T13:07:33.056Z,23.00
2017-09-20T13:10:00.792Z,30.03
2017-09-20T13:12:28.494Z,29.23
2017-09-20T13:14:56.221Z,35.73
2017-09-20T13:17:23.897Z,35.40
2017-09-20T13:19:51.637Z,23.67
2017-09-20T13:22:19.328Z,54.83
2017-09-20T13:24:47.067Z,33.43
2017-09-20T13:27:14.742Z,24.53
2017-09-20T13:29:42.470Z,26.70
2017-09-20T13:32:10.142Z,22.97
2017-09-20T13:34:37.861Z,30.83
2017-09-20T13:37:05.565Z,30.13
2017-09-20T13:39:33.289Z,32.27
2017-09-20T13:42:01.014Z,23.13
2017-09-20T13:44:28.685Z,24.70
2017-09-20T13:46:56.417Z,25.97
2017-09-20T13:49:24.087Z,24.60
2017-09-20T13:51:51.822Z,22.20
2017-09-20T13:54:19.504Z,19.40
2017-09-20T13:56:47.233Z,24.97
2017-09-20T13:59:15.803Z,22.10
2017-09-20T14:01:44.707Z,33.00
2017-09-20T14:04:13.521Z,19.50
2017-09-20T14:06:42.333Z,19.53
2017-09-20T14:09:10.325Z,19.93
2017-09-20T14:11:38.148Z,20.40
2017-09-20T14:14:10.375Z,20.57
2017-09-20T14:16:39.648Z,29.10
2017-09-20T14:19:08.158Z,21.10
2017-09-20T14:21:36.692Z,24.83
2017-09-20T14:24:05.285Z,19.10
2017-09-20T14:38:17.268Z,23.13
2017-09-20T14:40:45.808Z,19.93
2017-09-20T14:49:25.089Z,29.87
2017-09-20T14:54:46.914Z,22.77
2017-09-20T14:57:15.433Z,18.17
2017-09-20T14:59:43.585Z,32.47
2017-09-20T15:02:12.180Z,33.00
2017-09-20T15:04:40.856Z,25.40
2017-09-20T15:07:15.839Z,28.60
2017-09-20T15:09:44.213Z,20.17
2017-09-20T15:12:13.898Z,33.63
2017-09-20T15:14:42.804Z,23.03
2017-09-20T15:17:11.262Z,38.57
2017-09-20T15:19:39.346Z,24.33
2017-09-20T15:22:07.495Z,26.70
2017-09-20T15:24:37.722Z,27.40
2017-09-20T15:27:05.741Z,50.40
2017-09-20T15:29:34.737Z,24.17
2017-09-20T15:32:02.495Z,44.07
2017-09-20T15:34:31.552Z,29.13
2017-09-20T15:36:59.599Z,30.80
2017-09-20T15:39:27.918Z,21.13
2017-09-20T15:41:57.435Z,32.87
2017-09-20T15:44:25.123Z,23.50
2017-09-20T15:46:53.157Z,23.90
2017-09-20T15:49:20.750Z,28.40
2017-09-20T15:51:50.143Z,28.27
2017-09-20T15:54:17.801Z,25.33
2017-09-20T15:56:45.539Z,30.53
2017-09-20T15:59:15.064Z,21.67
2017-09-20T16:01:42.774Z,23.70
2017-09-20T16:04:10.873Z,24.70
2017-09-20T16:06:38.905Z,27.77
2017-09-20T16:09:12.298Z,25.57
2017-09-20T16:11:42.190Z,23.80
2017-09-20T16:14:10.332Z,26.77
2017-09-20T16:16:38.545Z,27.93
2017-09-20T16:19:06.240Z,25.70
2017-09-20T16:21:33.983Z,35.30
2017-09-20T16:24:04.637Z,32.67
2017-09-20T16:26:33.330Z,34.50
2017-09-20T16:29:02.010Z,29.83
2017-09-20T16:31:30.974Z,31.40
2017-09-20T16:33:58.785Z,31.70
2017-09-20T16:36:27.588Z,41.00
2017-09-20T16:39:02.178Z,34.43
2017-09-20T16:41:31.274Z,42.50
2017-09-20T16:43:59.966Z,41.37
2017-09-20T16:49:15.320Z,43.13
2017-09-20T16:51:44.551Z,43.60
2017-09-20T16:54:13.733Z,49.50
2017-09-20T16:56:41.836Z,55.73
2017-09-20T16:59:09.743Z,54.77
2017-09-20T17:01:40.702Z,47.60
2017-09-20T17:04:10.020Z,55.60
2017-09-20T17:06:37.905Z,62.60
2017-09-20T17:09:07.169Z,48.83
2017-09-20T17:11:36.663Z,52.60
2017-09-20T17:14:05.696Z,49.03
2017-09-20T17:16:35.683Z,44.57
2017-09-20T17:19:03.527Z,56.73
2017-09-20T17:21:31.151Z,60.83
2017-09-20T17:24:01.358Z,50.97
2017-09-20T17:26:29.365Z,54.67
2017-09-20T17:28:58.366Z,69.00
2017-09-20T17:31:28.317Z,62.63
2017-09-20T17:33:56.163Z,81.80
2017-09-20T17:36:24.441Z,76.23
2017-09-20T17:38:52.317Z,74.97
2017-09-20T17:41:20.520Z,74.27
2017-09-20T17:43:48.230Z,83.83
2017-09-20T17:46:15.811Z,84.77
2017-09-20T17:48:43.432Z,82.30
2017-09-20T17:51:11.012Z,98.87
2017-09-20T17:53:38.634Z,79.93
2017-09-20T17:56:06.220Z,81.43
2017-09-20T17:58:33.848Z,82.90
2017-09-20T18:01:01.529Z,88.43
2017-09-20T18:03:29.268Z,82.00
2017-09-20T18:05:56.936Z,79.77
2017-09-20T18:08:24.672Z,87.60
2017-09-20T18:10:52.369Z,79.03
2017-09-20T18:13:20.149Z,72.90
2017-09-20T18:15:47.833Z,78.10
2017-09-20T18:18:15.561Z,75.20
2017-09-20T18:20:43.285Z,86.07
2017-09-20T18:23:11.034Z,81.70
2017-09-20T18:25:38.710Z,71.10
2017-09-20T18:28:06.439Z,91.47
2017-09-20T18:30:34.052Z,95.07
2017-09-20T18:33:04.278Z,100.17
2017-09-20T18:35:31.911Z,87.57
2017-09-20T18:38:00.311Z,101.07
2017-09-20T18:40:28.055Z,87.73
2017-09-20T18:42:55.682Z,96.33
2017-09-20T18:45:23.269Z,100.30
2017-09-20T18:47:54.253Z,95.43
2017-09-20T18:50:21.839Z,92.93
2017-09-20T18:52:49.576Z,109.50
2017-09-20T18:55:17.191Z,94.83
2017-09-20T18:57:44.837Z,86.53
2017-09-20T19:00:12.464Z,105.63
2017-09-20T19:02:40.073Z,100.70
2017-09-20T19:05:07.798Z,108.87
2017-09-20T19:07:35.465Z,86.90
2017-09-20T19:10:03.261Z,114.57
2017-09-20T19:12:30.910Z,94.73
2017-09-20T19:14:58.617Z,107.50
2017-09-20T19:20:14.152Z,107.17
2017-09-20T19:22:45.211Z,102.47
2017-09-20T19:25:12.855Z,105.57
2017-09-20T19:27:40.448Z,112.73
2017-09-20T19:30:08.095Z,109.47
2017-09-20T19:32:35.785Z,122.20
2017-09-20T19:35:12.423Z,126.10
2017-09-20T19:37:40.011Z,143.97
2017-09-20T19:40:07.645Z,131.93
2017-09-20T19:42:35.232Z,144.47
2017-09-20T19:45:02.976Z,134.27
2017-09-20T19:47:30.567Z,128.30
2017-09-20T19:49:58.200Z,155.73
2017-09-20T19:52:25.945Z,142.53
2017-09-20T19:54:53.933Z,128.13
2017-09-20T19:57:21.535Z,139.53
2017-09-20T20:09:33.527Z,138.23
2017-09-20T20:12:01.285Z,133.63
2017-09-20T20:17:27.025Z,163.57
2017-09-20T20:25:59.446Z,117.10
2017-09-20T20:28:28.056Z,131.30
2017-09-20T20:30:55.741Z,136.80
2017-09-20T20:33:23.365Z,153.80
2017-09-20T20:35:51.047Z,160.47
2017-09-20T20:38:18.700Z,140.90
2017-09-20T20:40:46.527Z,145.23
2017-09-20T20:43:14.212Z,174.33
2017-09-20T20:45:42.006Z,171.03
2017-09-20T20:48:09.640Z,138.70
2017-09-20T20:50:37.488Z,136.70
2017-09-20T20:53:05.231Z,135.67
2017-09-20T20:55:33.029Z,147.07
2017-09-20T20:58:00.750Z,145.60
2017-09-20T21:00:28.554Z,133.90
2017-09-20T21:02:56.315Z,142.67
2017-09-20T21:05:24.099Z,139.13
2017-09-20T21:07:51.815Z,156.10
2017-09-20T21:10:19.571Z,135.77
2017-09-20T21:12:47.560Z,134.40
2017-09-20T21:15:15.342Z,122.10
2017-09-20T21:17:43.120Z,144.30
2017-09-20T21:20:11.094Z,143.00
2017-09-20T21:22:38.754Z,119.90
2017-09-20T21:25:06.546Z,138.50
2017-09-20T21:27:34.285Z,128.23
2017-09-20T21:30:02.056Z,131.33
2017-09-20T21:32:29.754Z,162.80
2017-09-20T21:34:57.518Z,101.53
2017-09-20T21:37:25.267Z,142.40
2017-09-20T21:39:53.097Z,108.37
2017-09-20T21:42:20.842Z,98.93
2017-09-20T21:44:48.597Z,103.13
2017-09-20T21:47:16.297Z,139.23
2017-09-20T21:49:44.042Z,121.70
2017-09-20T21:52:11.765Z,109.57
2017-09-20T21:54:39.573Z,59.27
2017-09-20T21:57:07.539Z,103.63
2017-09-20T21:59:35.295Z,119.47
2017-09-20T22:02:02.996Z,104.70
2017-09-20T22:04:30.767Z,92.37
2017-09-20T22:06:58.464Z,49.07
2017-09-20T22:09:26.181Z,92.87
2017-09-20T22:11:53.942Z,75.20
2017-09-20T22:14:21.661Z,75.23
2017-09-20T22:16:49.432Z,46.30
2017-09-20T22:19:17.154Z,40.97
2017-09-20T22:21:44.932Z,54.93
2017-09-20T22:24:12.646Z,39.30
2017-09-20T22:26:40.336Z,70.47
2017-09-20T22:29:07.965Z,56.20
2017-09-20T22:31:35.750Z,48.13
2017-09-20T22:34:03.468Z,85.70
2017-09-20T22:36:31.116Z,38.23
2017-09-20T22:38:58.885Z,76.07
2017-09-20T22:41:26.615Z,34.70
2017-09-20T22:43:54.301Z,34.73
2017-09-20T22:46:22.053Z,36.07
2017-09-20T22:48:49.745Z,26.87
2017-09-20T22:51:17.478Z,41.40
2017-09-20T22:53:45.189Z,42.57
2017-09-20T22:56:12.930Z,38.97
2017-09-20T22:58:40.637Z,31.07
2017-09-20T23:01:08.388Z,17.70
2017-09-20T23:03:36.082Z,26.00
2017-09-20T23:06:03.813Z,24.23
2017-09-20T23:08:31.522Z,14.70
2017-09-20T23:10:59.284Z,13.87
2017-09-20T23:13:26.964Z,20.10
2017-09-20T23:15:54.709Z,25.77
2017-09-20T23:18:22.403Z,37.63
2017-09-20T23:20:50.149Z,26.63
2017-09-20T23:23:17.840Z,12.57
2017-09-20T23:25:45.595Z,15.70
2017-09-20T23:28:13.339Z,11.57
2017-09-20T23:30:41.077Z,10.20
2017-09-20T23:33:08.765Z,9.60
2017-09-20T23:35:36.511Z,14.73
2017-09-20T23:38:04.206Z,19.57
2017-09-20T23:40:32.001Z,13.73
2017-09-20T23:42:59.689Z,11.40
2017-09-20T23:45:27.372Z,10.30
2017-09-20T23:47:55.127Z,12.50
2017-09-20T23:50:22.826Z,8.13
2017-09-20T23:52:50.571Z,9.30
2017-09-20T23:55:18.280Z,15.27
2017-09-20T23:57:46.034Z,15.97
